Terminal Aerodrome Forecast
Issued by NWS Charleston, WV

Current Version | Previous Version | Text Only | Print | Product List | Glossary Off
Versions: 1 2 3 4 5 6 7 8 9 10 11 12 13 14 15 16 17 18 19 20 21 22 23 24

000
FTUS41 KRLX 260900 AAC
TAFEKN
TAF AMD
KEKN 260920Z 2609/2706 00000KT 2SM -SN BR OVC025
      TEMPO 2609/2610 1SM -SN BKN015
     FM261000 00000KT 3SM -SN BR OVC015
     FM261200 00000KT 2SM -SN BR OVC025
     FM261700 00000KT 6SM -SHSN BR OVC035
     FM262300 30004KT 2SM -SHSN BR OVC008=

USA.gov is the U.S. government's official web portal to all federal, state and local government web resources and services.